sensor_id;sensor_type;location;lat;lon;timestamp;temperature;humidity
3921;DHT22;1975;49.356;6.816;2023-02-01T00:00:55;4.80;99.90
3921;DHT22;1975;49.356;6.816;2023-02-01T00:03:21;4.80;99.90
3921;DHT22;1975;49.356;6.816;2023-02-01T00:05:59;4.80;99.90
3921;DHT22;1975;49.356;6.816;2023-02-01T00:08:24;4.80;99.90
3921;DHT22;1975;49.356;6.816;2023-02-01T00:10:57;4.80;99.90
3921;DHT22;1975;49.356;6.816;2023-02-01T00:13:22;4.80;99.90
3921;DHT22;1975;49.356;6.816;2023-02-01T00:15:48;4.90;99.90
3921;DHT22;1975;49.356;6.816;2023-02-01T00:18:13;4.80;99.90
3921;DHT22;1975;49.356;6.816;2023-02-01T00:20:39;4.90;99.90
3921;DHT22;1975;49.356;6.816;2023-02-01T00:23:10;4.80;99.90
3921;DHT22;1975;49.356;6.816;2023-02-01T00:25:35;4.90;99.90
3921;DHT22;1975;49.356;6.816;2023-02-01T00:28:01;4.90;99.90
3921;DHT22;1975;49.356;6.816;2023-02-01T00:30:26;4.90;99.90
3921;DHT22;1975;49.356;6.816;2023-02-01T00:32:51;4.90;99.90
3921;DHT22;1975;49.356;6.816;2023-02-01T00:35:17;4.90;99.90
3921;DHT22;1975;49.356;6.816;2023-02-01T00:37:42;4.90;99.90
3921;DHT22;1975;49.356;6.816;2023-02-01T00:40:08;4.90;99.90
3921;DHT22;1975;49.356;6.816;2023-02-01T00:42:33;4.90;99.90
3921;DHT22;1975;49.356;6.816;2023-02-01T00:44:59;4.90;99.90
3921;DHT22;1975;49.356;6.816;2023-02-01T00:47:24;4.90;99.90
3921;DHT22;1975;49.356;6.816;2023-02-01T00:49:50;4.90;99.90
3921;DHT22;1975;49.356;6.816;2023-02-01T00:52:15;4.90;99.90
3921;DHT22;1975;49.356;6.816;2023-02-01T00:54:41;4.90;99.90
3921;DHT22;1975;49.356;6.816;2023-02-01T00:57:06;4.90;99.90
3921;DHT22;1975;49.356;6.816;2023-02-01T00:59:31;4.90;99.90
3921;DHT22;1975;49.356;6.816;2023-02-01T01:01:57;4.90;99.90
3921;DHT22;1975;49.356;6.816;2023-02-01T01:04:22;4.90;99.90
3921;DHT22;1975;49.356;6.816;2023-02-01T01:06:48;4.90;99.90
3921;DHT22;1975;49.356;6.816;2023-02-01T01:09:13;4.90;99.90
3921;DHT22;1975;49.356;6.816;2023-02-01T01:11:39;4.90;99.90
3921;DHT22;1975;49.356;6.816;2023-02-01T01:14:05;4.90;99.90
3921;DHT22;1975;49.356;6.816;2023-02-01T01:16:31;4.90;99.90
3921;DHT22;1975;49.356;6.816;2023-02-01T01:18:56;4.90;99.90
3921;DHT22;1975;49.356;6.816;2023-02-01T01:21:22;4.90;99.90
3921;DHT22;1975;49.356;6.816;2023-02-01T01:23:48;4.90;99.90
3921;DHT22;1975;49.356;6.816;2023-02-01T01:26:14;4.90;99.90
3921;DHT22;1975;49.356;6.816;2023-02-01T01:28:40;4.90;99.90
3921;DHT22;1975;49.356;6.816;2023-02-01T01:31:09;4.90;99.90
3921;DHT22;1975;49.356;6.816;2023-02-01T01:33:34;4.90;99.90
3921;DHT22;1975;49.356;6.816;2023-02-01T01:36:00;5.00;99.90
3921;DHT22;1975;49.356;6.816;2023-02-01T01:38:25;4.90;99.90
3921;DHT22;1975;49.356;6.816;2023-02-01T01:40:51;5.00;99.90
3921;DHT22;1975;49.356;6.816;2023-02-01T01:43:18;4.90;99.90
3921;DHT22;1975;49.356;6.816;2023-02-01T01:45:46;5.00;99.90
3921;DHT22;1975;49.356;6.816;2023-02-01T01:48:13;5.00;99.90
3921;DHT22;1975;49.356;6.816;2023-02-01T01:51:00;5.00;99.90
3921;DHT22;1975;49.356;6.816;2023-02-01T01:53:30;4.90;99.90
3921;DHT22;1975;49.356;6.816;2023-02-01T01:55:57;5.00;99.90
3921;DHT22;1975;49.356;6.816;2023-02-01T01:58:23;5.00;99.90
3921;DHT22;1975;49.356;6.816;2023-02-01T02:00:50;5.00;99.90
3921;DHT22;1975;49.356;6.816;2023-02-01T02:03:20;5.00;99.90
3921;DHT22;1975;49.356;6.816;2023-02-01T02:05:47;5.00;99.90
3921;DHT22;1975;49.356;6.816;2023-02-01T02:08:14;5.00;99.90
3921;DHT22;1975;49.356;6.816;2023-02-01T02:10:39;5.00;99.90
3921;DHT22;1975;49.356;6.816;2023-02-01T02:13:23;5.00;99.90
3921;DHT22;1975;49.356;6.816;2023-02-01T02:15:56;5.00;99.90
3921;DHT22;1975;49.356;6.816;2023-02-01T02:18:27;5.00;99.90
3921;DHT22;1975;49.356;6.816;2023-02-01T02:21:16;5.00;99.90
3921;DHT22;1975;49.356;6.816;2023-02-01T02:23:48;5.00;99.90
3921;DHT22;1975;49.356;6.816;2023-02-01T02:26:37;5.00;99.90
3921;DHT22;1975;49.356;6.816;2023-02-01T02:29:08;5.00;99.90
3921;DHT22;1975;49.356;6.816;2023-02-01T02:36:39;5.00;99.90
3921;DHT22;1975;49.356;6.816;2023-02-01T02:39:13;5.00;99.90
3921;DHT22;1975;49.356;6.816;2023-02-01T02:44:39;5.00;99.90
3921;DHT22;1975;49.356;6.816;2023-02-01T02:47:32;5.00;99.90
3921;DHT22;1975;49.356;6.816;2023-02-01T02:50:45;5.00;99.90
3921;DHT22;1975;49.356;6.816;2023-02-01T02:53:04;5.00;99.90
3921;DHT22;1975;49.356;6.816;2023-02-01T02:55:51;5.00;99.90
3921;DHT22;1975;49.356;6.816;2023-02-01T02:58:17;5.00;99.90
3921;DHT22;1975;49.356;6.816;2023-02-01T03:01:02;5.00;99.90
3921;DHT22;1975;49.356;6.816;2023-02-01T03:03:47;5.00;99.90
3921;DHT22;1975;49.356;6.816;2023-02-01T03:06:31;5.00;99.90
3921;DHT22;1975;49.356;6.816;2023-02-01T03:08:57;5.00;99.90
3921;DHT22;1975;49.356;6.816;2023-02-01T03:11:23;5.00;99.90
3921;DHT22;1975;49.356;6.816;2023-02-01T03:14:09;5.00;99.90
3921;DHT22;1975;49.356;6.816;2023-02-01T03:16:54;5.00;99.90
3921;DHT22;1975;49.356;6.816;2023-02-01T03:19:32;5.00;99.90
3921;DHT22;1975;49.356;6.816;2023-02-01T03:22:00;5.10;99.90
3921;DHT22;1975;49.356;6.816;2023-02-01T03:27:16;5.00;99.90
3921;DHT22;1975;49.356;6.816;2023-02-01T03:30:31;5.10;99.90
3921;DHT22;1975;49.356;6.816;2023-02-01T03:32:31;5.10;99.90
3921;DHT22;1975;49.356;6.816;2023-02-01T03:35:16;5.10;99.90
3921;DHT22;1975;49.356;6.816;2023-02-01T03:37:43;5.10;99.90
3921;DHT22;1975;49.356;6.816;2023-02-01T03:40:09;5.10;99.90
3921;DHT22;1975;49.356;6.816;2023-02-01T03:42:37;5.10;99.90
3921;DHT22;1975;49.356;6.816;2023-02-01T03:45:08;5.10;99.90
3921;DHT22;1975;49.356;6.816;2023-02-01T03:47:36;5.10;99.90
3921;DHT22;1975;49.356;6.816;2023-02-01T03:50:06;5.10;99.90
3921;DHT22;1975;49.356;6.816;2023-02-01T03:55:07;5.10;99.90
3921;DHT22;1975;49.356;6.816;2023-02-01T03:57:34;5.10;99.90
3921;DHT22;1975;49.356;6.816;2023-02-01T04:00:05;5.10;99.90
3921;DHT22;1975;49.356;6.816;2023-02-01T04:02:30;5.10;99.90
3921;DHT22;1975;49.356;6.816;2023-02-01T04:04:56;5.10;99.90
3921;DHT22;1975;49.356;6.816;2023-02-01T04:07:21;5.10;99.90
3921;DHT22;1975;49.356;6.816;2023-02-01T04:09:47;5.10;99.90
3921;DHT22;1975;49.356;6.816;2023-02-01T04:12:12;5.10;99.90
3921;DHT22;1975;49.356;6.816;2023-02-01T04:14:37;5.10;99.90
3921;DHT22;1975;49.356;6.816;2023-02-01T04:17:03;5.10;99.90
3921;DHT22;1975;49.356;6.816;2023-02-01T04:19:28;5.10;99.90
3921;DHT22;1975;49.356;6.816;2023-02-01T04:21:54;5.10;99.90
3921;DHT22;1975;49.356;6.816;2023-02-01T04:24:20;5.10;99.90
3921;DHT22;1975;49.356;6.816;2023-02-01T04:26:45;5.10;99.90
3921;DHT22;1975;49.356;6.816;2023-02-01T04:29:10;5.10;99.90
3921;DHT22;1975;49.356;6.816;2023-02-01T04:31:36;5.10;99.90
3921;DHT22;1975;49.356;6.816;2023-02-01T04:34:02;5.10;99.90
3921;DHT22;1975;49.356;6.816;2023-02-01T04:36:27;5.10;99.90
3921;DHT22;1975;49.356;6.816;2023-02-01T04:38:52;5.10;99.90
3921;DHT22;1975;49.356;6.816;2023-02-01T04:41:19;5.10;99.90
3921;DHT22;1975;49.356;6.816;2023-02-01T04:43:47;5.10;99.90
3921;DHT22;1975;49.356;6.816;2023-02-01T04:46:13;5.20;99.90
3921;DHT22;1975;49.356;6.816;2023-02-01T04:48:38;5.10;99.90
3921;DHT22;1975;49.356;6.816;2023-02-01T04:51:04;5.10;99.90
3921;DHT22;1975;49.356;6.816;2023-02-01T04:53:29;5.10;99.90
3921;DHT22;1975;49.356;6.816;2023-02-01T04:55:55;5.10;99.90
3921;DHT22;1975;49.356;6.816;2023-02-01T04:58:20;5.20;99.90
3921;DHT22;1975;49.356;6.816;2023-02-01T05:00:46;5.20;99.90
3921;DHT22;1975;49.356;6.816;2023-02-01T05:03:12;5.20;99.90
3921;DHT22;1975;49.356;6.816;2023-02-01T05:05:37;5.10;99.90
3921;DHT22;1975;49.356;6.816;2023-02-01T05:08:03;5.20;99.90
3921;DHT22;1975;49.356;6.816;2023-02-01T05:10:28;5.20;99.90
3921;DHT22;1975;49.356;6.816;2023-02-01T05:12:54;5.10;99.90
3921;DHT22;1975;49.356;6.816;2023-02-01T05:15:38;5.10;99.90
3921;DHT22;1975;49.356;6.816;2023-02-01T05:18:03;5.20;99.90
3921;DHT22;1975;49.356;6.816;2023-02-01T05:20:29;5.20;99.90
3921;DHT22;1975;49.356;6.816;2023-02-01T05:22:54;5.10;99.90
3921;DHT22;1975;49.356;6.816;2023-02-01T05:25:19;5.20;99.90
3921;DHT22;1975;49.356;6.816;2023-02-01T05:27:45;5.20;99.90
3921;DHT22;1975;49.356;6.816;2023-02-01T05:30:10;5.20;99.90
3921;DHT22;1975;49.356;6.816;2023-02-01T05:32:36;5.20;99.90
3921;DHT22;1975;49.356;6.816;2023-02-01T05:35:02;5.20;99.90
3921;DHT22;1975;49.356;6.816;2023-02-01T05:37:27;5.20;99.90
3921;DHT22;1975;49.356;6.816;2023-02-01T05:39:53;5.20;99.90
3921;DHT22;1975;49.356;6.816;2023-02-01T05:42:18;5.20;99.90
3921;DHT22;1975;49.356;6.816;2023-02-01T05:44:43;5.20;99.90
3921;DHT22;1975;49.356;6.816;2023-02-01T05:47:09;5.20;99.90
3921;DHT22;1975;49.356;6.816;2023-02-01T05:49:35;5.20;99.90
3921;DHT22;1975;49.356;6.816;2023-02-01T05:52:00;5.20;99.90
3921;DHT22;1975;49.356;6.816;2023-02-01T05:54:26;5.20;99.90
3921;DHT22;1975;49.356;6.816;2023-02-01T05:56:51;5.20;99.90
3921;DHT22;1975;49.356;6.816;2023-02-01T05:59:17;5.20;99.90
3921;DHT22;1975;49.356;6.816;2023-02-01T06:01:42;5.20;99.90
3921;DHT22;1975;49.356;6.816;2023-02-01T06:04:08;5.20;99.90
3921;DHT22;1975;49.356;6.816;2023-02-01T06:06:33;5.20;99.90
3921;DHT22;1975;49.356;6.816;2023-02-01T06:08:59;5.20;99.90
3921;DHT22;1975;49.356;6.816;2023-02-01T06:11:25;5.20;99.90
3921;DHT22;1975;49.356;6.816;2023-02-01T06:13:50;5.20;99.90
3921;DHT22;1975;49.356;6.816;2023-02-01T06:16:16;5.20;99.90
3921;DHT22;1975;49.356;6.816;2023-02-01T06:18:42;5.20;99.90
3921;DHT22;1975;49.356;6.816;2023-02-01T06:21:07;5.20;99.90
3921;DHT22;1975;49.356;6.816;2023-02-01T06:23:33;5.20;99.90
3921;DHT22;1975;49.356;6.816;2023-02-01T06:25:59;5.20;99.90
3921;DHT22;1975;49.356;6.816;2023-02-01T06:28:25;5.20;99.90
3921;DHT22;1975;49.356;6.816;2023-02-01T06:30:50;5.20;99.90
3921;DHT22;1975;49.356;6.816;2023-02-01T06:33:16;5.20;99.90
3921;DHT22;1975;49.356;6.816;2023-02-01T06:35:42;5.20;99.90
3921;DHT22;1975;49.356;6.816;2023-02-01T06:38:10;5.20;99.90
3921;DHT22;1975;49.356;6.816;2023-02-01T06:40:35;5.20;99.90
3921;DHT22;1975;49.356;6.816;2023-02-01T06:43:01;5.20;99.90
3921;DHT22;1975;49.356;6.816;2023-02-01T06:45:26;5.20;99.90
3921;DHT22;1975;49.356;6.816;2023-02-01T06:47:51;5.20;99.90
3921;DHT22;1975;49.356;6.816;2023-02-01T06:50:17;5.20;99.90
3921;DHT22;1975;49.356;6.816;2023-02-01T06:52:42;5.20;99.90
3921;DHT22;1975;49.356;6.816;2023-02-01T06:55:08;5.20;99.90
3921;DHT22;1975;49.356;6.816;2023-02-01T06:57:33;5.20;99.90
3921;DHT22;1975;49.356;6.816;2023-02-01T07:00:01;5.20;99.90
3921;DHT22;1975;49.356;6.816;2023-02-01T07:02:27;5.20;99.90
3921;DHT22;1975;49.356;6.816;2023-02-01T07:04:52;5.20;99.90
3921;DHT22;1975;49.356;6.816;2023-02-01T07:07:18;5.20;99.90
3921;DHT22;1975;49.356;6.816;2023-02-01T07:09:45;5.20;99.90
3921;DHT22;1975;49.356;6.816;2023-02-01T07:12:11;5.20;99.90
3921;DHT22;1975;49.356;6.816;2023-02-01T07:14:36;5.20;99.90
3921;DHT22;1975;49.356;6.816;2023-02-01T07:17:02;5.20;99.90
3921;DHT22;1975;49.356;6.816;2023-02-01T07:19:27;5.20;99.90
3921;DHT22;1975;49.356;6.816;2023-02-01T07:21:53;5.20;99.90
3921;DHT22;1975;49.356;6.816;2023-02-01T07:24:18;5.20;99.90
3921;DHT22;1975;49.356;6.816;2023-02-01T07:26:44;5.20;99.90
3921;DHT22;1975;49.356;6.816;2023-02-01T07:29:09;5.20;99.90
3921;DHT22;1975;49.356;6.816;2023-02-01T07:31:35;5.20;99.90
3921;DHT22;1975;49.356;6.816;2023-02-01T07:34:00;5.20;99.90
3921;DHT22;1975;49.356;6.816;2023-02-01T07:36:27;5.20;99.90
3921;DHT22;1975;49.356;6.816;2023-02-01T07:38:53;5.30;99.90
3921;DHT22;1975;49.356;6.816;2023-02-01T07:41:18;5.20;99.90
3921;DHT22;1975;49.356;6.816;2023-02-01T07:43:44;5.30;99.90
3921;DHT22;1975;49.356;6.816;2023-02-01T07:46:10;5.20;99.90
3921;DHT22;1975;49.356;6.816;2023-02-01T07:48:36;5.30;99.90
3921;DHT22;1975;49.356;6.816;2023-02-01T07:51:03;5.20;99.90
3921;DHT22;1975;49.356;6.816;2023-02-01T07:53:29;5.30;99.90
3921;DHT22;1975;49.356;6.816;2023-02-01T07:55:54;5.30;99.90
3921;DHT22;1975;49.356;6.816;2023-02-01T07:58:21;5.30;99.90
3921;DHT22;1975;49.356;6.816;2023-02-01T08:00:47;5.30;99.90
3921;DHT22;1975;49.356;6.816;2023-02-01T08:03:31;5.20;99.90
3921;DHT22;1975;49.356;6.816;2023-02-01T08:05:57;5.20;99.90
3921;DHT22;1975;49.356;6.816;2023-02-01T08:08:22;5.30;99.90
3921;DHT22;1975;49.356;6.816;2023-02-01T08:10:48;5.30;99.90
3921;DHT22;1975;49.356;6.816;2023-02-01T08:13:14;5.30;99.90
3921;DHT22;1975;49.356;6.816;2023-02-01T08:15:39;5.20;99.90
3921;DHT22;1975;49.356;6.816;2023-02-01T08:18:05;5.30;99.90
3921;DHT22;1975;49.356;6.816;2023-02-01T08:20:30;5.30;99.90
3921;DHT22;1975;49.356;6.816;2023-02-01T08:22:56;5.30;99.90
3921;DHT22;1975;49.356;6.816;2023-02-01T08:25:22;5.30;99.90
3921;DHT22;1975;49.356;6.816;2023-02-01T08:27:47;5.30;99.90
3921;DHT22;1975;49.356;6.816;2023-02-01T08:30:13;5.20;99.90
3921;DHT22;1975;49.356;6.816;2023-02-01T08:32:39;5.30;99.90
3921;DHT22;1975;49.356;6.816;2023-02-01T08:35:04;5.30;99.90
3921;DHT22;1975;49.356;6.816;2023-02-01T08:37:30;5.30;99.90
3921;DHT22;1975;49.356;6.816;2023-02-01T08:39:56;5.30;99.90
3921;DHT22;1975;49.356;6.816;2023-02-01T08:42:21;5.30;99.90
3921;DHT22;1975;49.356;6.816;2023-02-01T08:45:05;5.30;99.90
3921;DHT22;1975;49.356;6.816;2023-02-01T08:47:33;5.30;99.90
3921;DHT22;1975;49.356;6.816;2023-02-01T08:49:58;5.30;99.90
3921;DHT22;1975;49.356;6.816;2023-02-01T08:52:24;5.30;99.90
3921;DHT22;1975;49.356;6.816;2023-02-01T08:54:49;5.30;99.90
3921;DHT22;1975;49.356;6.816;2023-02-01T08:57:15;5.30;99.90
3921;DHT22;1975;49.356;6.816;2023-02-01T08:59:40;5.30;99.90
3921;DHT22;1975;49.356;6.816;2023-02-01T09:02:08;5.30;99.90
3921;DHT22;1975;49.356;6.816;2023-02-01T09:04:33;5.30;99.90
3921;DHT22;1975;49.356;6.816;2023-02-01T09:06:59;5.30;99.90
3921;DHT22;1975;49.356;6.816;2023-02-01T09:09:27;5.30;99.90
3921;DHT22;1975;49.356;6.816;2023-02-01T09:11:52;5.30;99.90
3921;DHT22;1975;49.356;6.816;2023-02-01T09:14:18;5.30;99.90
3921;DHT22;1975;49.356;6.816;2023-02-01T09:16:43;5.30;99.90
3921;DHT22;1975;49.356;6.816;2023-02-01T09:19:09;5.30;99.90
3921;DHT22;1975;49.356;6.816;2023-02-01T09:21:34;5.30;99.90
3921;DHT22;1975;49.356;6.816;2023-02-01T09:24:00;5.30;99.90
3921;DHT22;1975;49.356;6.816;2023-02-01T09:26:26;5.30;99.90
3921;DHT22;1975;49.356;6.816;2023-02-01T09:28:51;5.30;99.90
3921;DHT22;1975;49.356;6.816;2023-02-01T09:31:17;5.30;99.90
3921;DHT22;1975;49.356;6.816;2023-02-01T09:33:42;5.30;99.90
3921;DHT22;1975;49.356;6.816;2023-02-01T09:36:07;5.40;99.90
3921;DHT22;1975;49.356;6.816;2023-02-01T09:38:33;5.40;99.90
3921;DHT22;1975;49.356;6.816;2023-02-01T09:40:58;5.40;99.90
3921;DHT22;1975;49.356;6.816;2023-02-01T09:48:41;5.40;99.90
3921;DHT22;1975;49.356;6.816;2023-02-01T09:51:12;5.40;99.90
3921;DHT22;1975;49.356;6.816;2023-02-01T09:53:40;5.40;99.90
3921;DHT22;1975;49.356;6.816;2023-02-01T09:58:41;5.40;99.90
3921;DHT22;1975;49.356;6.816;2023-02-01T10:01:15;5.40;99.90
3921;DHT22;1975;49.356;6.816;2023-02-01T10:03:42;5.40;99.90
3921;DHT22;1975;49.356;6.816;2023-02-01T10:21:19;5.40;99.90
3921;DHT22;1975;49.356;6.816;2023-02-01T10:26:22;5.40;99.90
3921;DHT22;1975;49.356;6.816;2023-02-01T10:28:49;5.40;99.90
3921;DHT22;1975;49.356;6.816;2023-02-01T10:31:15;5.40;99.90
3921;DHT22;1975;49.356;6.816;2023-02-01T10:33:41;5.40;99.90
3921;DHT22;1975;49.356;6.816;2023-02-01T10:38:52;5.50;99.90
3921;DHT22;1975;49.356;6.816;2023-02-01T10:41:19;5.50;99.90
3921;DHT22;1975;49.356;6.816;2023-02-01T10:43:46;5.50;99.90
3921;DHT22;1975;49.356;6.816;2023-02-01T10:46:13;5.50;99.90
3921;DHT22;1975;49.356;6.816;2023-02-01T10:48:38;5.50;99.90
3921;DHT22;1975;49.356;6.816;2023-02-01T10:53:35;5.50;99.90
3921;DHT22;1975;49.356;6.816;2023-02-01T10:56:06;5.50;99.90
3921;DHT22;1975;49.356;6.816;2023-02-01T10:58:32;5.50;99.90
3921;DHT22;1975;49.356;6.816;2023-02-01T11:01:07;5.50;99.90
3921;DHT22;1975;49.356;6.816;2023-02-01T11:03:34;5.50;99.90
3921;DHT22;1975;49.356;6.816;2023-02-01T11:06:03;5.50;99.90
3921;DHT22;1975;49.356;6.816;2023-02-01T11:08:29;5.50;99.90
3921;DHT22;1975;49.356;6.816;2023-02-01T11:10:59;5.50;99.90
3921;DHT22;1975;49.356;6.816;2023-02-01T11:13:28;5.50;99.90
3921;DHT22;1975;49.356;6.816;2023-02-01T11:15:56;5.50;99.90
3921;DHT22;1975;49.356;6.816;2023-02-01T11:18:26;5.50;99.90
3921;DHT22;1975;49.356;6.816;2023-02-01T11:20:52;5.50;99.90
3921;DHT22;1975;49.356;6.816;2023-02-01T11:23:19;5.50;99.90
3921;DHT22;1975;49.356;6.816;2023-02-01T11:25:50;5.50;99.90
3921;DHT22;1975;49.356;6.816;2023-02-01T11:28:16;5.50;99.90
3921;DHT22;1975;49.356;6.816;2023-02-01T11:30:42;5.50;99.90
3921;DHT22;1975;49.356;6.816;2023-02-01T11:33:13;5.50;99.90
3921;DHT22;1975;49.356;6.816;2023-02-01T11:35:39;5.60;99.90
3921;DHT22;1975;49.356;6.816;2023-02-01T11:40:42;5.50;99.90
3921;DHT22;1975;49.356;6.816;2023-02-01T11:43:24;5.60;99.90
3921;DHT22;1975;49.356;6.816;2023-02-01T11:45:57;5.50;99.90
3921;DHT22;1975;49.356;6.816;2023-02-01T11:48:24;5.50;99.90
3921;DHT22;1975;49.356;6.816;2023-02-01T11:51:00;5.60;99.90
3921;DHT22;1975;49.356;6.816;2023-02-01T11:53:36;5.60;99.90
3921;DHT22;1975;49.356;6.816;2023-02-01T12:02:01;5.70;99.90
3921;DHT22;1975;49.356;6.816;2023-02-01T12:06:49;5.60;99.90
3921;DHT22;1975;49.356;6.816;2023-02-01T12:09:21;5.70;99.90
3921;DHT22;1975;49.356;6.816;2023-02-01T12:19:36;5.70;99.90
3921;DHT22;1975;49.356;6.816;2023-02-01T12:24:48;5.70;99.90
3921;DHT22;1975;49.356;6.816;2023-02-01T12:27:21;5.70;99.90
3921;DHT22;1975;49.356;6.816;2023-02-01T12:29:56;5.70;99.90
3921;DHT22;1975;49.356;6.816;2023-02-01T12:35:13;5.70;99.90
3921;DHT22;1975;49.356;6.816;2023-02-01T12:37:51;5.70;99.90
3921;DHT22;1975;49.356;6.816;2023-02-01T12:42:57;5.70;99.90
3921;DHT22;1975;49.356;6.816;2023-02-01T12:45:47;5.70;99.90
3921;DHT22;1975;49.356;6.816;2023-02-01T12:50:48;5.70;99.90
3921;DHT22;1975;49.356;6.816;2023-02-01T12:55:49;5.70;99.90
3921;DHT22;1975;49.356;6.816;2023-02-01T12:58:24;5.70;99.90
3921;DHT22;1975;49.356;6.816;2023-02-01T13:01:00;5.70;99.90
3921;DHT22;1975;49.356;6.816;2023-02-01T13:03:38;5.70;99.90
3921;DHT22;1975;49.356;6.816;2023-02-01T13:06:07;5.70;99.90
3921;DHT22;1975;49.356;6.816;2023-02-01T13:09:20;5.70;99.90
3921;DHT22;1975;49.356;6.816;2023-02-01T13:11:37;5.70;99.90
3921;DHT22;1975;49.356;6.816;2023-02-01T13:16:33;5.70;99.90
3921;DHT22;1975;49.356;6.816;2023-02-01T13:19:05;5.80;99.90
3921;DHT22;1975;49.356;6.816;2023-02-01T13:21:33;5.70;99.90
3921;DHT22;1975;49.356;6.816;2023-02-01T13:23:59;5.70;99.90
3921;DHT22;1975;49.356;6.816;2023-02-01T13:26:24;5.70;99.90
3921;DHT22;1975;49.356;6.816;2023-02-01T13:28:51;5.70;99.90
3921;DHT22;1975;49.356;6.816;2023-02-01T13:31:25;5.70;99.90
3921;DHT22;1975;49.356;6.816;2023-02-01T13:42:00;5.80;99.90
3921;DHT22;1975;49.356;6.816;2023-02-01T13:44:28;5.80;99.90
3921;DHT22;1975;49.356;6.816;2023-02-01T13:46:55;5.80;99.90
3921;DHT22;1975;49.356;6.816;2023-02-01T13:49:22;5.80;99.90
3921;DHT22;1975;49.356;6.816;2023-02-01T13:51:50;5.80;99.90
3921;DHT22;1975;49.356;6.816;2023-02-01T13:54:37;5.80;99.90
3921;DHT22;1975;49.356;6.816;2023-02-01T13:57:03;5.80;99.90
3921;DHT22;1975;49.356;6.816;2023-02-01T14:04:49;5.80;99.90
3921;DHT22;1975;49.356;6.816;2023-02-01T14:07:21;5.80;99.90
3921;DHT22;1975;49.356;6.816;2023-02-01T14:09:47;5.80;99.90
3921;DHT22;1975;49.356;6.816;2023-02-01T14:17:41;5.90;99.90
3921;DHT22;1975;49.356;6.816;2023-02-01T14:22:51;5.90;99.90
3921;DHT22;1975;49.356;6.816;2023-02-01T14:25:25;5.90;99.90
3921;DHT22;1975;49.356;6.816;2023-02-01T14:27:52;5.90;99.90
3921;DHT22;1975;49.356;6.816;2023-02-01T14:30:18;5.90;99.90
3921;DHT22;1975;49.356;6.816;2023-02-01T14:32:44;5.90;99.90
3921;DHT22;1975;49.356;6.816;2023-02-01T14:35:17;5.90;99.90
3921;DHT22;1975;49.356;6.816;2023-02-01T14:37:43;5.90;99.90
3921;DHT22;1975;49.356;6.816;2023-02-01T14:47:44;5.90;99.90
3921;DHT22;1975;49.356;6.816;2023-02-01T14:52:41;5.90;99.90
3921;DHT22;1975;49.356;6.816;2023-02-01T14:55:16;5.90;99.90
3921;DHT22;1975;49.356;6.816;2023-02-01T14:57:43;5.90;99.90
3921;DHT22;1975;49.356;6.816;2023-02-01T15:02:40;5.90;99.90
3921;DHT22;1975;49.356;6.816;2023-02-01T15:07:50;5.90;99.90
3921;DHT22;1975;49.356;6.816;2023-02-01T15:10:15;5.90;99.90
3921;DHT22;1975;49.356;6.816;2023-02-01T15:12:42;5.90;99.90
3921;DHT22;1975;49.356;6.816;2023-02-01T15:17:35;5.90;99.90
3921;DHT22;1975;49.356;6.816;2023-02-01T15:20:02;5.90;99.90
3921;DHT22;1975;49.356;6.816;2023-02-01T15:22:29;6.00;99.90
3921;DHT22;1975;49.356;6.816;2023-02-01T15:24:55;5.90;99.90
3921;DHT22;1975;49.356;6.816;2023-02-01T15:27:21;5.90;99.90
3921;DHT22;1975;49.356;6.816;2023-02-01T15:29:46;6.00;99.90
3921;DHT22;1975;49.356;6.816;2023-02-01T15:32:30;6.00;99.90
3921;DHT22;1975;49.356;6.816;2023-02-01T15:34:56;6.00;99.90
3921;DHT22;1975;49.356;6.816;2023-02-01T15:37:22;6.00;99.90
3921;DHT22;1975;49.356;6.816;2023-02-01T15:42:33;6.00;99.90
3921;DHT22;1975;49.356;6.816;2023-02-01T15:44:59;6.00;99.90
3921;DHT22;1975;49.356;6.816;2023-02-01T15:47:26;6.00;99.90
3921;DHT22;1975;49.356;6.816;2023-02-01T15:49:55;6.00;99.90
3921;DHT22;1975;49.356;6.816;2023-02-01T15:52:25;6.00;99.90
3921;DHT22;1975;49.356;6.816;2023-02-01T15:55:06;6.00;99.90
3921;DHT22;1975;49.356;6.816;2023-02-01T15:57:33;6.00;99.90
3921;DHT22;1975;49.356;6.816;2023-02-01T16:00:01;6.00;99.90
3921;DHT22;1975;49.356;6.816;2023-02-01T16:02:32;6.00;99.90
3921;DHT22;1975;49.356;6.816;2023-02-01T16:04:58;6.00;99.90
3921;DHT22;1975;49.356;6.816;2023-02-01T16:07:26;6.00;99.90
3921;DHT22;1975;49.356;6.816;2023-02-01T16:09:53;6.00;99.90
3921;DHT22;1975;49.356;6.816;2023-02-01T16:12:30;6.00;99.90
3921;DHT22;1975;49.356;6.816;2023-02-01T16:14:56;6.00;99.90
3921;DHT22;1975;49.356;6.816;2023-02-01T16:17:21;6.00;99.90
3921;DHT22;1975;49.356;6.816;2023-02-01T16:19:47;6.00;99.90
3921;DHT22;1975;49.356;6.816;2023-02-01T16:22:12;6.10;99.90
3921;DHT22;1975;49.356;6.816;2023-02-01T16:24:38;6.20;99.90
3921;DHT22;1975;49.356;6.816;2023-02-01T16:27:03;6.20;99.90
3921;DHT22;1975;49.356;6.816;2023-02-01T16:29:32;6.20;99.90
3921;DHT22;1975;49.356;6.816;2023-02-01T16:31:57;6.20;99.90
3921;DHT22;1975;49.356;6.816;2023-02-01T16:34:23;6.20;99.90
3921;DHT22;1975;49.356;6.816;2023-02-01T16:36:49;6.20;99.90
3921;DHT22;1975;49.356;6.816;2023-02-01T16:39:17;6.10;99.90
3921;DHT22;1975;49.356;6.816;2023-02-01T16:41:42;6.10;99.90
3921;DHT22;1975;49.356;6.816;2023-02-01T16:44:08;6.10;99.90
3921;DHT22;1975;49.356;6.816;2023-02-01T16:46:34;6.10;99.90
3921;DHT22;1975;49.356;6.816;2023-02-01T16:49:00;6.10;99.90
3921;DHT22;1975;49.356;6.816;2023-02-01T16:51:27;6.20;99.90
3921;DHT22;1975;49.356;6.816;2023-02-01T16:53:53;6.10;99.90
3921;DHT22;1975;49.356;6.816;2023-02-01T16:56:22;6.20;99.90
3921;DHT22;1975;49.356;6.816;2023-02-01T16:58:48;6.10;99.90
3921;DHT22;1975;49.356;6.816;2023-02-01T17:01:14;6.20;99.90
3921;DHT22;1975;49.356;6.816;2023-02-01T17:03:40;6.20;99.90
3921;DHT22;1975;49.356;6.816;2023-02-01T17:06:07;6.20;99.90
3921;DHT22;1975;49.356;6.816;2023-02-01T17:08:36;6.20;99.90
3921;DHT22;1975;49.356;6.816;2023-02-01T17:11:04;6.20;99.90
3921;DHT22;1975;49.356;6.816;2023-02-01T17:13:30;6.20;99.90
3921;DHT22;1975;49.356;6.816;2023-02-01T17:16:00;6.10;99.90
3921;DHT22;1975;49.356;6.816;2023-02-01T17:18:27;6.20;99.90
3921;DHT22;1975;49.356;6.816;2023-02-01T17:20:56;6.20;99.90
3921;DHT22;1975;49.356;6.816;2023-02-01T17:23:22;6.20;99.90
3921;DHT22;1975;49.356;6.816;2023-02-01T17:25:47;6.20;99.90
3921;DHT22;1975;49.356;6.816;2023-02-01T17:28:13;6.20;99.90
3921;DHT22;1975;49.356;6.816;2023-02-01T17:30:39;6.20;99.90
3921;DHT22;1975;49.356;6.816;2023-02-01T17:33:07;6.20;99.90
3921;DHT22;1975;49.356;6.816;2023-02-01T17:35:36;6.20;99.90
3921;DHT22;1975;49.356;6.816;2023-02-01T17:38:01;6.20;99.90
3921;DHT22;1975;49.356;6.816;2023-02-01T17:40:27;6.20;99.90
3921;DHT22;1975;49.356;6.816;2023-02-01T17:42:54;6.20;99.90
3921;DHT22;1975;49.356;6.816;2023-02-01T17:45:35;6.20;99.90
3921;DHT22;1975;49.356;6.816;2023-02-01T17:48:02;6.20;99.90
3921;DHT22;1975;49.356;6.816;2023-02-01T17:50:29;6.20;99.90
3921;DHT22;1975;49.356;6.816;2023-02-01T17:52:54;6.20;99.90
3921;DHT22;1975;49.356;6.816;2023-02-01T17:55:20;6.20;99.90
3921;DHT22;1975;49.356;6.816;2023-02-01T17:57:48;6.20;99.90
3921;DHT22;1975;49.356;6.816;2023-02-01T18:00:14;6.20;99.90
3921;DHT22;1975;49.356;6.816;2023-02-01T18:02:40;6.20;99.90
3921;DHT22;1975;49.356;6.816;2023-02-01T18:07:49;6.20;99.90
3921;DHT22;1975;49.356;6.816;2023-02-01T18:10:15;6.20;99.90
3921;DHT22;1975;49.356;6.816;2023-02-01T18:12:41;6.20;99.90
3921;DHT22;1975;49.356;6.816;2023-02-01T18:17:41;6.20;99.90
3921;DHT22;1975;49.356;6.816;2023-02-01T18:20:07;6.20;99.90
3921;DHT22;1975;49.356;6.816;2023-02-01T18:22:35;6.20;99.90
3921;DHT22;1975;49.356;6.816;2023-02-01T18:25:00;6.20;99.90
3921;DHT22;1975;49.356;6.816;2023-02-01T18:27:26;6.20;99.90